Dresden, Germany
Current Conditions -  °F | °C
As of 4:20 PM on Friday 24 Oct 2014 (Local Time) from EDDC Reporting Station
Broken Clouds Broken Clouds  
Wind Chill: 45°   Ceiling: 26000
Heat Index: 48°   Visibility: 6mi
Dew Point: 43°   Wind: 7mph
Humidity: 82%   Direction: 100°E
Pressure: 30.18"   Gusts: NA
Location:  51.05°N, 13.73°E
Report Text: EDDC 241420Z 10006KT 9999 SCT014 BKN260 09/06 Q1022 NOSIG
Loading
Personal Weather Stations






























Interactive Weather Map
Tropical Storm Tracking
New forecast layout! Learn more

10-Day Weather Forecast

Advertisements
Track Severe Weather on mobile